sensor_id;sensor_type;location;lat;lon;timestamp;P1;durP1;ratioP1;P2;durP2;ratioP2
74158;SDS011;62511;47.970;11.774;2024-03-23T00:51:26;4.95;;;1.92;;
74158;SDS011;62511;47.970;11.774;2024-03-23T00:53:52;2.88;;;1.80;;
74158;SDS011;62511;47.970;11.774;2024-03-23T00:56:18;3.05;;;1.70;;
74158;SDS011;62511;47.970;11.774;2024-03-23T00:58:44;2.85;;;1.73;;
74158;SDS011;62511;47.970;11.774;2024-03-23T01:01:10;4.10;;;1.38;;
74158;SDS011;62511;47.970;11.774;2024-03-23T01:03:36;3.33;;;1.80;;
74158;SDS011;62511;47.970;11.774;2024-03-23T01:06:03;5.40;;;1.98;;
74158;SDS011;62511;47.970;11.774;2024-03-23T01:08:29;5.88;;;1.63;;
74158;SDS011;62511;47.970;11.774;2024-03-23T01:13:22;6.40;;;1.92;;
74158;SDS011;62511;47.970;11.774;2024-03-23T01:15:49;5.80;;;1.88;;
74158;SDS011;62511;47.970;11.774;2024-03-23T01:18:17;4.75;;;2.00;;
74158;SDS011;62511;47.970;11.774;2024-03-23T01:20:43;2.70;;;1.50;;
74158;SDS011;62511;47.970;11.774;2024-03-23T01:23:09;1.63;;;1.35;;
74158;SDS011;62511;47.970;11.774;2024-03-23T01:25:36;3.00;;;1.92;;
74158;SDS011;62511;47.970;11.774;2024-03-23T01:28:02;4.30;;;1.85;;
74158;SDS011;62511;47.970;11.774;2024-03-23T01:30:28;1.98;;;1.50;;
74158;SDS011;62511;47.970;11.774;2024-03-23T01:32:55;3.60;;;1.90;;
74158;SDS011;62511;47.970;11.774;2024-03-23T01:35:21;2.42;;;1.55;;
74158;SDS011;62511;47.970;11.774;2024-03-23T01:37:48;2.85;;;1.45;;
74158;SDS011;62511;47.970;11.774;2024-03-23T01:40:15;3.10;;;1.58;;
74158;SDS011;62511;47.970;11.774;2024-03-23T01:42:42;7.03;;;1.75;;
74158;SDS011;62511;47.970;11.774;2024-03-23T01:45:09;2.67;;;1.52;;
74158;SDS011;62511;47.970;11.774;2024-03-23T01:47:35;3.58;;;1.80;;
74158;SDS011;62511;47.970;11.774;2024-03-23T01:50:01;2.03;;;1.58;;
74158;SDS011;62511;47.970;11.774;2024-03-23T01:52:28;2.20;;;1.52;;
74158;SDS011;62511;47.970;11.774;2024-03-23T01:54:55;2.47;;;1.83;;
74158;SDS011;62511;47.970;11.774;2024-03-23T01:57:21;2.13;;;1.42;;
74158;SDS011;62511;47.970;11.774;2024-03-23T01:59:47;3.33;;;1.58;;
74158;SDS011;62511;47.970;11.774;2024-03-23T02:02:14;2.10;;;1.20;;
74158;SDS011;62511;47.970;11.774;2024-03-23T02:04:43;3.50;;;1.63;;
74158;SDS011;62511;47.970;11.774;2024-03-23T02:07:09;2.25;;;1.55;;
74158;SDS011;62511;47.970;11.774;2024-03-23T02:09:35;2.17;;;1.48;;
74158;SDS011;62511;47.970;11.774;2024-03-23T02:12:02;2.45;;;1.63;;
74158;SDS011;62511;47.970;11.774;2024-03-23T02:14:28;2.17;;;1.27;;
74158;SDS011;62511;47.970;11.774;2024-03-23T02:16:55;2.47;;;1.38;;
74158;SDS011;62511;47.970;11.774;2024-03-23T02:19:21;4.72;;;1.67;;
74158;SDS011;62511;47.970;11.774;2024-03-23T02:21:47;5.93;;;1.52;;
74158;SDS011;62511;47.970;11.774;2024-03-23T02:24:14;3.30;;;1.65;;
74158;SDS011;62511;47.970;11.774;2024-03-23T02:26:41;2.30;;;1.50;;
74158;SDS011;62511;47.970;11.774;2024-03-23T02:29:07;1.45;;;1.25;;
74158;SDS011;62511;47.970;11.774;2024-03-23T02:31:34;3.00;;;1.70;;
74158;SDS011;62511;47.970;11.774;2024-03-23T02:34:01;1.85;;;1.40;;
74158;SDS011;62511;47.970;11.774;2024-03-23T02:36:28;2.92;;;1.30;;
74158;SDS011;62511;47.970;11.774;2024-03-23T02:38:56;1.83;;;1.38;;
74158;SDS011;62511;47.970;11.774;2024-03-23T02:41:22;2.53;;;1.48;;
74158;SDS011;62511;47.970;11.774;2024-03-23T02:43:52;2.97;;;1.50;;
74158;SDS011;62511;47.970;11.774;2024-03-23T02:46:18;1.92;;;0.95;;
74158;SDS011;62511;47.970;11.774;2024-03-23T02:48:44;2.13;;;1.40;;
74158;SDS011;62511;47.970;11.774;2024-03-23T02:51:11;2.67;;;1.45;;
74158;SDS011;62511;47.970;11.774;2024-03-23T02:53:37;1.63;;;1.05;;
74158;SDS011;62511;47.970;11.774;2024-03-23T02:56:03;3.30;;;1.10;;
74158;SDS011;62511;47.970;11.774;2024-03-23T02:58:30;3.97;;;1.40;;
74158;SDS011;62511;47.970;11.774;2024-03-23T03:00:56;2.20;;;1.20;;
74158;SDS011;62511;47.970;11.774;2024-03-23T03:03:22;1.73;;;1.00;;
74158;SDS011;62511;47.970;11.774;2024-03-23T03:05:54;3.15;;;1.13;;
74158;SDS011;62511;47.970;11.774;2024-03-23T03:08:20;2.03;;;0.93;;
74158;SDS011;62511;47.970;11.774;2024-03-23T03:10:46;3.58;;;1.27;;
74158;SDS011;62511;47.970;11.774;2024-03-23T03:13:12;2.00;;;1.10;;
74158;SDS011;62511;47.970;11.774;2024-03-23T03:15:39;1.25;;;1.10;;
74158;SDS011;62511;47.970;11.774;2024-03-23T03:20:31;2.40;;;1.30;;
74158;SDS011;62511;47.970;11.774;2024-03-23T03:22:57;1.60;;;1.13;;
74158;SDS011;62511;47.970;11.774;2024-03-23T03:25:23;2.33;;;1.23;;
74158;SDS011;62511;47.970;11.774;2024-03-23T03:27:49;1.70;;;1.02;;
74158;SDS011;62511;47.970;11.774;2024-03-23T03:30:15;1.45;;;0.98;;
74158;SDS011;62511;47.970;11.774;2024-03-23T03:32:41;3.33;;;1.40;;
74158;SDS011;62511;47.970;11.774;2024-03-23T03:35:08;1.13;;;0.88;;
74158;SDS011;62511;47.970;11.774;2024-03-23T03:37:34;2.13;;;1.25;;
74158;SDS011;62511;47.970;11.774;2024-03-23T03:40:00;2.63;;;1.30;;
74158;SDS011;62511;47.970;11.774;2024-03-23T03:42:26;3.90;;;1.10;;
74158;SDS011;62511;47.970;11.774;2024-03-23T03:44:52;1.73;;;1.08;;
74158;SDS011;62511;47.970;11.774;2024-03-23T03:47:19;2.08;;;1.15;;
74158;SDS011;62511;47.970;11.774;2024-03-23T03:49:45;3.38;;;1.50;;
74158;SDS011;62511;47.970;11.774;2024-03-23T03:52:10;2.72;;;1.30;;
74158;SDS011;62511;47.970;11.774;2024-03-23T03:54:36;1.95;;;0.93;;
74158;SDS011;62511;47.970;11.774;2024-03-23T03:57:02;3.35;;;1.38;;
74158;SDS011;62511;47.970;11.774;2024-03-23T03:59:29;2.17;;;1.40;;
74158;SDS011;62511;47.970;11.774;2024-03-23T04:01:55;2.33;;;0.93;;
74158;SDS011;62511;47.970;11.774;2024-03-23T04:04:21;2.72;;;1.50;;
74158;SDS011;62511;47.970;11.774;2024-03-23T04:06:47;1.55;;;0.77;;
74158;SDS011;62511;47.970;11.774;2024-03-23T04:09:14;3.30;;;1.10;;
74158;SDS011;62511;47.970;11.774;2024-03-23T04:11:40;1.70;;;1.20;;
74158;SDS011;62511;47.970;11.774;2024-03-23T04:14:06;2.00;;;0.85;;
74158;SDS011;62511;47.970;11.774;2024-03-23T04:16:35;1.77;;;1.02;;
74158;SDS011;62511;47.970;11.774;2024-03-23T04:19:01;3.28;;;1.23;;
74158;SDS011;62511;47.970;11.774;2024-03-23T04:21:27;2.15;;;1.02;;
74158;SDS011;62511;47.970;11.774;2024-03-23T04:23:53;2.30;;;1.10;;
74158;SDS011;62511;47.970;11.774;2024-03-23T04:26:19;1.48;;;0.82;;
74158;SDS011;62511;47.970;11.774;2024-03-23T04:28:45;1.83;;;1.30;;
74158;SDS011;62511;47.970;11.774;2024-03-23T04:31:11;0.93;;;0.80;;
74158;SDS011;62511;47.970;11.774;2024-03-23T04:33:37;2.10;;;1.10;;
74158;SDS011;62511;47.970;11.774;2024-03-23T04:36:04;2.53;;;1.00;;
74158;SDS011;62511;47.970;11.774;2024-03-23T04:38:30;1.00;;;0.77;;
74158;SDS011;62511;47.970;11.774;2024-03-23T04:40:56;2.65;;;0.80;;
74158;SDS011;62511;47.970;11.774;2024-03-23T04:43:22;4.05;;;1.08;;
74158;SDS011;62511;47.970;11.774;2024-03-23T04:45:49;1.40;;;0.80;;
74158;SDS011;62511;47.970;11.774;2024-03-23T04:48:15;2.45;;;0.90;;
74158;SDS011;62511;47.970;11.774;2024-03-23T04:50:41;1.05;;;0.80;;
74158;SDS011;62511;47.970;11.774;2024-03-23T04:53:07;1.55;;;0.90;;
74158;SDS011;62511;47.970;11.774;2024-03-23T04:55:33;1.73;;;1.02;;
74158;SDS011;62511;47.970;11.774;2024-03-23T04:57:59;2.63;;;1.23;;
74158;SDS011;62511;47.970;11.774;2024-03-23T05:00:25;2.90;;;1.05;;
74158;SDS011;62511;47.970;11.774;2024-03-23T05:02:51;1.95;;;1.17;;
74158;SDS011;62511;47.970;11.774;2024-03-23T05:05:18;2.35;;;1.10;;
74158;SDS011;62511;47.970;11.774;2024-03-23T05:07:44;1.55;;;1.10;;
74158;SDS011;62511;47.970;11.774;2024-03-23T05:10:10;1.33;;;0.90;;
74158;SDS011;62511;47.970;11.774;2024-03-23T05:12:39;3.10;;;1.30;;
74158;SDS011;62511;47.970;11.774;2024-03-23T05:15:05;1.30;;;0.85;;
74158;SDS011;62511;47.970;11.774;2024-03-23T05:17:34;0.98;;;0.88;;
74158;SDS011;62511;47.970;11.774;2024-03-23T05:20:01;0.95;;;0.80;;
74158;SDS011;62511;47.970;11.774;2024-03-23T05:22:28;1.83;;;1.08;;
74158;SDS011;62511;47.970;11.774;2024-03-23T05:24:54;0.85;;;0.60;;
74158;SDS011;62511;47.970;11.774;2024-03-23T05:27:20;1.27;;;0.95;;
74158;SDS011;62511;47.970;11.774;2024-03-23T05:29:45;2.03;;;1.10;;
74158;SDS011;62511;47.970;11.774;2024-03-23T05:32:12;1.52;;;0.77;;
74158;SDS011;62511;47.970;11.774;2024-03-23T05:34:38;2.17;;;1.10;;
74158;SDS011;62511;47.970;11.774;2024-03-23T05:37:04;1.33;;;0.90;;
74158;SDS011;62511;47.970;11.774;2024-03-23T05:39:30;1.90;;;0.80;;
74158;SDS011;62511;47.970;11.774;2024-03-23T05:41:56;2.95;;;1.00;;
74158;SDS011;62511;47.970;11.774;2024-03-23T05:44:22;1.15;;;0.88;;
74158;SDS011;62511;47.970;11.774;2024-03-23T05:46:48;1.05;;;0.70;;
74158;SDS011;62511;47.970;11.774;2024-03-23T05:49:15;4.88;;;1.20;;
74158;SDS011;62511;47.970;11.774;2024-03-23T05:51:44;1.33;;;0.90;;
74158;SDS011;62511;47.970;11.774;2024-03-23T05:54:10;2.03;;;0.80;;
74158;SDS011;62511;47.970;11.774;2024-03-23T05:56:36;2.05;;;0.80;;
74158;SDS011;62511;47.970;11.774;2024-03-23T05:59:03;1.30;;;0.80;;
74158;SDS011;62511;47.970;11.774;2024-03-23T06:03:57;0.90;;;0.80;;
74158;SDS011;62511;47.970;11.774;2024-03-23T06:06:23;1.15;;;0.85;;
74158;SDS011;62511;47.970;11.774;2024-03-23T06:08:49;1.35;;;0.73;;
74158;SDS011;62511;47.970;11.774;2024-03-23T06:11:15;1.48;;;0.90;;
74158;SDS011;62511;47.970;11.774;2024-03-23T06:13:41;1.65;;;1.13;;
74158;SDS011;62511;47.970;11.774;2024-03-23T06:16:07;1.10;;;0.75;;
74158;SDS011;62511;47.970;11.774;2024-03-23T06:18:33;1.38;;;0.98;;
74158;SDS011;62511;47.970;11.774;2024-03-23T06:20:59;4.88;;;1.05;;
74158;SDS011;62511;47.970;11.774;2024-03-23T06:23:25;3.17;;;0.82;;
74158;SDS011;62511;47.970;11.774;2024-03-23T06:25:51;1.58;;;0.85;;
74158;SDS011;62511;47.970;11.774;2024-03-23T06:28:17;1.05;;;0.90;;
74158;SDS011;62511;47.970;11.774;2024-03-23T06:30:43;1.65;;;0.90;;
74158;SDS011;62511;47.970;11.774;2024-03-23T06:33:09;2.05;;;1.40;;
74158;SDS011;62511;47.970;11.774;2024-03-23T06:35:35;1.23;;;0.80;;
74158;SDS011;62511;47.970;11.774;2024-03-23T06:38:01;1.85;;;0.80;;
74158;SDS011;62511;47.970;11.774;2024-03-23T06:40:27;1.77;;;0.88;;
74158;SDS011;62511;47.970;11.774;2024-03-23T06:42:53;1.35;;;1.10;;
74158;SDS011;62511;47.970;11.774;2024-03-23T06:45:19;2.03;;;1.00;;
74158;SDS011;62511;47.970;11.774;2024-03-23T06:47:48;0.70;;;0.68;;
74158;SDS011;62511;47.970;11.774;2024-03-23T06:50:14;1.80;;;1.40;;
74158;SDS011;62511;47.970;11.774;2024-03-23T06:52:40;1.15;;;0.80;;
74158;SDS011;62511;47.970;11.774;2024-03-23T06:55:07;1.10;;;0.90;;
74158;SDS011;62511;47.970;11.774;2024-03-23T06:57:33;3.15;;;0.90;;
74158;SDS011;62511;47.970;11.774;2024-03-23T06:59:59;1.40;;;0.65;;
74158;SDS011;62511;47.970;11.774;2024-03-23T07:02:25;0.70;;;0.60;;
74158;SDS011;62511;47.970;11.774;2024-03-23T07:04:51;0.50;;;0.50;;
74158;SDS011;62511;47.970;11.774;2024-03-23T07:07:17;1.27;;;0.73;;
74158;SDS011;62511;47.970;11.774;2024-03-23T07:09:43;1.10;;;0.77;;
74158;SDS011;62511;47.970;11.774;2024-03-23T07:12:09;1.20;;;0.70;;
74158;SDS011;62511;47.970;11.774;2024-03-23T07:14:35;3.70;;;0.77;;
74158;SDS011;62511;47.970;11.774;2024-03-23T07:17:01;2.22;;;0.90;;
74158;SDS011;62511;47.970;11.774;2024-03-23T07:19:27;1.00;;;0.73;;
74158;SDS011;62511;47.970;11.774;2024-03-23T07:21:53;2.03;;;0.75;;
74158;SDS011;62511;47.970;11.774;2024-03-23T07:24:19;2.70;;;0.82;;
74158;SDS011;62511;47.970;11.774;2024-03-23T07:26:45;0.80;;;0.57;;
74158;SDS011;62511;47.970;11.774;2024-03-23T07:29:11;1.25;;;0.60;;
74158;SDS011;62511;47.970;11.774;2024-03-23T07:31:37;1.50;;;0.60;;
74158;SDS011;62511;47.970;11.774;2024-03-23T07:34:03;2.33;;;0.80;;
74158;SDS011;62511;47.970;11.774;2024-03-23T07:36:30;1.48;;;0.90;;
74158;SDS011;62511;47.970;11.774;2024-03-23T07:38:56;1.40;;;0.52;;
74158;SDS011;62511;47.970;11.774;2024-03-23T07:41:22;1.45;;;0.75;;
74158;SDS011;62511;47.970;11.774;2024-03-23T07:43:49;1.60;;;0.80;;
74158;SDS011;62511;47.970;11.774;2024-03-23T07:46:16;2.35;;;0.80;;
74158;SDS011;62511;47.970;11.774;2024-03-23T07:48:42;0.43;;;0.43;;
74158;SDS011;62511;47.970;11.774;2024-03-23T07:51:08;0.70;;;0.45;;
74158;SDS011;62511;47.970;11.774;2024-03-23T07:56:05;0.85;;;0.50;;
74158;SDS011;62511;47.970;11.774;2024-03-23T07:58:31;0.63;;;0.50;;
74158;SDS011;62511;47.970;11.774;2024-03-23T08:01:03;0.82;;;0.32;;
74158;SDS011;62511;47.970;11.774;2024-03-23T08:03:29;0.55;;;0.55;;
74158;SDS011;62511;47.970;11.774;2024-03-23T08:05:55;2.60;;;0.95;;
74158;SDS011;62511;47.970;11.774;2024-03-23T08:08:21;0.90;;;0.63;;
74158;SDS011;62511;47.970;11.774;2024-03-23T08:10:48;3.17;;;0.68;;
74158;SDS011;62511;47.970;11.774;2024-03-23T08:13:14;0.70;;;0.65;;
74158;SDS011;62511;47.970;11.774;2024-03-23T08:15:40;0.55;;;0.50;;
74158;SDS011;62511;47.970;11.774;2024-03-23T08:18:06;0.68;;;0.68;;
74158;SDS011;62511;47.970;11.774;2024-03-23T08:20:32;0.70;;;0.65;;
74158;SDS011;62511;47.970;11.774;2024-03-23T08:22:58;0.70;;;0.50;;
74158;SDS011;62511;47.970;11.774;2024-03-23T08:25:24;0.50;;;0.30;;
74158;SDS011;62511;47.970;11.774;2024-03-23T08:27:50;2.13;;;0.40;;
74158;SDS011;62511;47.970;11.774;2024-03-23T08:30:17;3.15;;;0.60;;
74158;SDS011;62511;47.970;11.774;2024-03-23T08:32:43;0.65;;;0.32;;
74158;SDS011;62511;47.970;11.774;2024-03-23T08:35:10;0.47;;;0.20;;
74158;SDS011;62511;47.970;11.774;2024-03-23T08:37:36;0.50;;;0.40;;
74158;SDS011;62511;47.970;11.774;2024-03-23T08:40:02;0.30;;;0.28;;
74158;SDS011;62511;47.970;11.774;2024-03-23T08:42:29;0.30;;;0.20;;
74158;SDS011;62511;47.970;11.774;2024-03-23T08:44:55;0.40;;;0.40;;
74158;SDS011;62511;47.970;11.774;2024-03-23T08:47:21;1.30;;;0.40;;
74158;SDS011;62511;47.970;11.774;2024-03-23T08:49:47;0.70;;;0.60;;
74158;SDS011;62511;47.970;11.774;2024-03-23T08:52:13;1.55;;;0.65;;
74158;SDS011;62511;47.970;11.774;2024-03-23T08:54:39;0.20;;;0.20;;
74158;SDS011;62511;47.970;11.774;2024-03-23T08:57:05;1.05;;;0.60;;
74158;SDS011;62511;47.970;11.774;2024-03-23T08:59:32;0.55;;;0.30;;
74158;SDS011;62511;47.970;11.774;2024-03-23T09:01:58;1.02;;;0.50;;
74158;SDS011;62511;47.970;11.774;2024-03-23T09:04:24;0.40;;;0.40;;
74158;SDS011;62511;47.970;11.774;2024-03-23T09:06:50;0.85;;;0.52;;
74158;SDS011;62511;47.970;11.774;2024-03-23T09:09:16;0.40;;;0.20;;
74158;SDS011;62511;47.970;11.774;2024-03-23T09:11:42;0.60;;;0.50;;
74158;SDS011;62511;47.970;11.774;2024-03-23T09:14:08;0.80;;;0.60;;
74158;SDS011;62511;47.970;11.774;2024-03-23T09:16:34;0.20;;;0.20;;
74158;SDS011;62511;47.970;11.774;2024-03-23T09:19:00;0.50;;;0.50;;
74158;SDS011;62511;47.970;11.774;2024-03-23T09:21:26;0.70;;;0.70;;
74158;SDS011;62511;47.970;11.774;2024-03-23T09:23:52;2.10;;;1.23;;
74158;SDS011;62511;47.970;11.774;2024-03-23T09:26:18;0.63;;;0.40;;
74158;SDS011;62511;47.970;11.774;2024-03-23T09:28:44;1.17;;;0.50;;
74158;SDS011;62511;47.970;11.774;2024-03-23T09:31:10;0.73;;;0.28;;
74158;SDS011;62511;47.970;11.774;2024-03-23T09:33:39;0.25;;;0.25;;
74158;SDS011;62511;47.970;11.774;2024-03-23T09:36:06;1.63;;;0.80;;
74158;SDS011;62511;47.970;11.774;2024-03-23T09:38:32;0.88;;;0.60;;
74158;SDS011;62511;47.970;11.774;2024-03-23T09:40:58;0.47;;;0.47;;
74158;SDS011;62511;47.970;11.774;2024-03-23T09:43:24;1.35;;;0.75;;
74158;SDS011;62511;47.970;11.774;2024-03-23T09:45:50;0.45;;;0.40;;
74158;SDS011;62511;47.970;11.774;2024-03-23T09:48:16;1.23;;;0.85;;
74158;SDS011;62511;47.970;11.774;2024-03-23T09:50:43;2.25;;;1.00;;
74158;SDS011;62511;47.970;11.774;2024-03-23T09:53:11;0.75;;;0.60;;
74158;SDS011;62511;47.970;11.774;2024-03-23T09:55:38;0.70;;;0.40;;
74158;SDS011;62511;47.970;11.774;2024-03-23T09:58:04;0.55;;;0.50;;
74158;SDS011;62511;47.970;11.774;2024-03-23T10:00:33;1.05;;;0.55;;
74158;SDS011;62511;47.970;11.774;2024-03-23T10:03:00;0.82;;;0.40;;
74158;SDS011;62511;47.970;11.774;2024-03-23T10:05:29;0.80;;;0.50;;
74158;SDS011;62511;47.970;11.774;2024-03-23T10:08:17;0.57;;;0.43;;
74158;SDS011;62511;47.970;11.774;2024-03-23T10:10:44;1.38;;;0.05;;
74158;SDS011;62511;47.970;11.774;2024-03-23T10:13:10;0.10;;;0.10;;
74158;SDS011;62511;47.970;11.774;2024-03-23T10:15:40;2.28;;;0.30;;
74158;SDS011;62511;47.970;11.774;2024-03-23T10:18:18;0.10;;;0.10;;
74158;SDS011;62511;47.970;11.774;2024-03-23T10:23:29;0.13;;;0.13;;
74158;SDS011;62511;47.970;11.774;2024-03-23T10:25:55;0.55;;;0.55;;
74158;SDS011;62511;47.970;11.774;2024-03-23T10:29:00;0.40;;;0.40;;
74158;SDS011;62511;47.970;11.774;2024-03-23T10:31:36;0.00;;;0.00;;
74158;SDS011;62511;47.970;11.774;2024-03-23T10:34:04;0.65;;;0.20;;
74158;SDS011;62511;47.970;11.774;2024-03-23T10:36:30;1.77;;;1.40;;
74158;SDS011;62511;47.970;11.774;2024-03-23T10:38:56;0.15;;;0.15;;
74158;SDS011;62511;47.970;11.774;2024-03-23T10:41:28;2.40;;;1.30;;
74158;SDS011;62511;47.970;11.774;2024-03-23T10:43:55;0.35;;;0.30;;
74158;SDS011;62511;47.970;11.774;2024-03-23T10:46:21;0.10;;;0.10;;
74158;SDS011;62511;47.970;11.774;2024-03-23T10:48:47;0.20;;;0.20;;
74158;SDS011;62511;47.970;11.774;2024-03-23T10:51:14;0.20;;;0.20;;
74158;SDS011;62511;47.970;11.774;2024-03-23T10:53:41;0.60;;;0.50;;
74158;SDS011;62511;47.970;11.774;2024-03-23T10:56:07;0.75;;;0.57;;
74158;SDS011;62511;47.970;11.774;2024-03-23T10:58:38;0.20;;;0.20;;
74158;SDS011;62511;47.970;11.774;2024-03-23T11:01:04;0.10;;;0.10;;
74158;SDS011;62511;47.970;11.774;2024-03-23T11:03:36;0.35;;;0.30;;
74158;SDS011;62511;47.970;11.774;2024-03-23T11:06:05;2.08;;;0.40;;
74158;SDS011;62511;47.970;11.774;2024-03-23T11:11:11;0.30;;;0.20;;
74158;SDS011;62511;47.970;11.774;2024-03-23T11:13:38;0.20;;;0.20;;
74158;SDS011;62511;47.970;11.774;2024-03-23T11:16:13;0.52;;;0.22;;
74158;SDS011;62511;47.970;11.774;2024-03-23T11:18:39;0.50;;;0.22;;
74158;SDS011;62511;47.970;11.774;2024-03-23T11:21:06;0.40;;;0.17;;
74158;SDS011;62511;47.970;11.774;2024-03-23T11:23:32;0.47;;;0.10;;
74158;SDS011;62511;47.970;11.774;2024-03-23T11:26:00;0.45;;;0.30;;
74158;SDS011;62511;47.970;11.774;2024-03-23T11:28:26;0.25;;;0.25;;
74158;SDS011;62511;47.970;11.774;2024-03-23T11:30:52;0.05;;;0.05;;
74158;SDS011;62511;47.970;11.774;2024-03-23T11:33:18;0.30;;;0.20;;
74158;SDS011;62511;47.970;11.774;2024-03-23T11:35:44;0.57;;;0.40;;
74158;SDS011;62511;47.970;11.774;2024-03-23T11:38:16;1.17;;;0.50;;
74158;SDS011;62511;47.970;11.774;2024-03-23T11:40:47;0.68;;;0.40;;
74158;SDS011;62511;47.970;11.774;2024-03-23T11:43:14;1.60;;;0.50;;
74158;SDS011;62511;47.970;11.774;2024-03-23T11:45:44;0.60;;;0.32;;
74158;SDS011;62511;47.970;11.774;2024-03-23T11:48:11;0.50;;;0.30;;
74158;SDS011;62511;47.970;11.774;2024-03-23T11:50:38;0.40;;;0.20;;
74158;SDS011;62511;47.970;11.774;2024-03-23T11:55:47;0.82;;;0.13;;
74158;SDS011;62511;47.970;11.774;2024-03-23T11:58:14;0.85;;;0.40;;
74158;SDS011;62511;47.970;11.774;2024-03-23T12:00:40;0.60;;;0.25;;
74158;SDS011;62511;47.970;11.774;2024-03-23T12:03:06;1.73;;;0.85;;
74158;SDS011;62511;47.970;11.774;2024-03-23T12:05:33;0.60;;;0.38;;
74158;SDS011;62511;47.970;11.774;2024-03-23T12:08:18;2.22;;;0.95;;
74158;SDS011;62511;47.970;11.774;2024-03-23T12:10:46;4.45;;;0.85;;
74158;SDS011;62511;47.970;11.774;2024-03-23T12:13:14;2.03;;;1.23;;
74158;SDS011;62511;47.970;11.774;2024-03-23T12:15:40;2.60;;;1.58;;
74158;SDS011;62511;47.970;11.774;2024-03-23T12:18:07;1.55;;;1.10;;
74158;SDS011;62511;47.970;11.774;2024-03-23T12:20:33;2.75;;;1.58;;
74158;SDS011;62511;47.970;11.774;2024-03-23T12:23:06;2.67;;;1.08;;
74158;SDS011;62511;47.970;11.774;2024-03-23T12:25:32;2.85;;;0.70;;
74158;SDS011;62511;47.970;11.774;2024-03-23T12:28:01;1.30;;;0.70;;
74158;SDS011;62511;47.970;11.774;2024-03-23T12:30:27;0.85;;;0.40;;
74158;SDS011;62511;47.970;11.774;2024-03-23T12:32:53;1.55;;;0.70;;
74158;SDS011;62511;47.970;11.774;2024-03-23T12:35:19;2.95;;;0.47;;
74158;SDS011;62511;47.970;11.774;2024-03-23T12:37:45;1.15;;;0.50;;
74158;SDS011;62511;47.970;11.774;2024-03-23T12:40:11;1.77;;;0.70;;
74158;SDS011;62511;47.970;11.774;2024-03-23T12:42:39;2.92;;;0.50;;
74158;SDS011;62511;47.970;11.774;2024-03-23T12:45:05;1.48;;;0.90;;
74158;SDS011;62511;47.970;11.774;2024-03-23T12:47:31;1.33;;;0.90;;
74158;SDS011;62511;47.970;11.774;2024-03-23T12:49:57;1.23;;;0.60;;
74158;SDS011;62511;47.970;11.774;2024-03-23T12:52:23;1.25;;;0.90;;
74158;SDS011;62511;47.970;11.774;2024-03-23T12:54:53;1.58;;;0.50;;
74158;SDS011;62511;47.970;11.774;2024-03-23T12:57:22;1.95;;;0.57;;
74158;SDS011;62511;47.970;11.774;2024-03-23T12:59:48;1.95;;;1.00;;
74158;SDS011;62511;47.970;11.774;2024-03-23T13:02:16;1.45;;;0.93;;
74158;SDS011;62511;47.970;11.774;2024-03-23T13:04:42;1.73;;;0.80;;
74158;SDS011;62511;47.970;11.774;2024-03-23T13:07:08;2.92;;;0.90;;
74158;SDS011;62511;47.970;11.774;2024-03-23T13:09:34;2.03;;;0.68;;
74158;SDS011;62511;47.970;11.774;2024-03-23T13:12:00;2.28;;;1.38;;
74158;SDS011;62511;47.970;11.774;2024-03-23T13:14:27;3.00;;;0.88;;
74158;SDS011;62511;47.970;11.774;2024-03-23T13:16:52;0.70;;;0.70;;
74158;SDS011;62511;47.970;11.774;2024-03-23T13:19:18;1.08;;;0.40;;
74158;SDS011;62511;47.970;11.774;2024-03-23T13:21:45;0.65;;;0.57;;
74158;SDS011;62511;47.970;11.774;2024-03-23T13:24:11;0.70;;;0.55;;
74158;SDS011;62511;47.970;11.774;2024-03-23T13:26:37;0.75;;;0.50;;
74158;SDS011;62511;47.970;11.774;2024-03-23T13:29:03;1.05;;;0.68;;
74158;SDS011;62511;47.970;11.774;2024-03-23T13:31:29;0.40;;;0.40;;
74158;SDS011;62511;47.970;11.774;2024-03-23T13:33:55;0.47;;;0.22;;
74158;SDS011;62511;47.970;11.774;2024-03-23T13:36:21;1.08;;;0.77;;
74158;SDS011;62511;47.970;11.774;2024-03-23T13:38:47;3.15;;;1.23;;
74158;SDS011;62511;47.970;11.774;2024-03-23T13:41:12;2.72;;;1.17;;
74158;SDS011;62511;47.970;11.774;2024-03-23T13:43:39;5.20;;;1.63;;
74158;SDS011;62511;47.970;11.774;2024-03-23T13:46:05;5.15;;;2.92;;
74158;SDS011;62511;47.970;11.774;2024-03-23T13:48:31;2.05;;;1.23;;
74158;SDS011;62511;47.970;11.774;2024-03-23T13:53:24;3.65;;;1.83;;
74158;SDS011;62511;47.970;11.774;2024-03-23T13:55:50;2.58;;;1.88;;
74158;SDS011;62511;47.970;11.774;2024-03-23T13:58:16;1.02;;;0.82;;
74158;SDS011;62511;47.970;11.774;2024-03-23T14:00:42;1.63;;;0.60;;
74158;SDS011;62511;47.970;11.774;2024-03-23T14:03:11;2.50;;;1.50;;
74158;SDS011;62511;47.970;11.774;2024-03-23T14:05:38;2.22;;;1.10;;
74158;SDS011;62511;47.970;11.774;2024-03-23T14:08:07;0.77;;;0.75;;
74158;SDS011;62511;47.970;11.774;2024-03-23T14:10:34;2.95;;;2.03;;
74158;SDS011;62511;47.970;11.774;2024-03-23T14:13:03;5.35;;;2.83;;
74158;SDS011;62511;47.970;11.774;2024-03-23T14:15:29;6.18;;;2.92;;
74158;SDS011;62511;47.970;11.774;2024-03-23T14:17:56;3.38;;;2.13;;
74158;SDS011;62511;47.970;11.774;2024-03-23T14:20:22;2.72;;;2.20;;
74158;SDS011;62511;47.970;11.774;2024-03-23T14:22:48;5.63;;;3.28;;
74158;SDS011;62511;47.970;11.774;2024-03-23T14:25:15;3.85;;;1.25;;
74158;SDS011;62511;47.970;11.774;2024-03-23T14:27:41;1.00;;;0.40;;
74158;SDS011;62511;47.970;11.774;2024-03-23T14:30:07;2.33;;;0.80;;
74158;SDS011;62511;47.970;11.774;2024-03-23T14:32:33;2.47;;;0.98;;
74158;SDS011;62511;47.970;11.774;2024-03-23T14:35:03;0.85;;;0.73;;
74158;SDS011;62511;47.970;11.774;2024-03-23T14:37:29;0.52;;;0.30;;
74158;SDS011;62511;47.970;11.774;2024-03-23T14:39:55;2.95;;;0.98;;
74158;SDS011;62511;47.970;11.774;2024-03-23T14:42:22;3.97;;;1.00;;
74158;SDS011;62511;47.970;11.774;2024-03-23T14:44:51;0.68;;;0.50;;
74158;SDS011;62511;47.970;11.774;2024-03-23T14:47:18;1.88;;;1.40;;
74158;SDS011;62511;47.970;11.774;2024-03-23T14:49:44;0.00;;;0.00;;
74158;SDS011;62511;47.970;11.774;2024-03-23T14:52:15;0.00;;;0.00;;
74158;SDS011;62511;47.970;11.774;2024-03-23T14:54:41;0.00;;;0.00;;
74158;SDS011;62511;47.970;11.774;2024-03-23T14:57:07;0.00;;;0.00;;
74158;SDS011;62511;47.970;11.774;2024-03-23T14:59:37;0.00;;;0.00;;
74158;SDS011;62511;47.970;11.774;2024-03-23T15:02:03;0.00;;;0.00;;
74158;SDS011;62511;47.970;11.774;2024-03-23T15:04:29;0.10;;;0.10;;
74158;SDS011;62511;47.970;11.774;2024-03-23T15:06:55;0.00;;;0.00;;
74158;SDS011;62511;47.970;11.774;2024-03-23T15:09:21;0.00;;;0.00;;
74158;SDS011;62511;47.970;11.774;2024-03-23T15:11:47;0.00;;;0.00;;
74158;SDS011;62511;47.970;11.774;2024-03-23T15:14:13;0.00;;;0.00;;
74158;SDS011;62511;47.970;11.774;2024-03-23T15:16:39;0.00;;;0.00;;
74158;SDS011;62511;47.970;11.774;2024-03-23T15:21:33;0.00;;;0.00;;
74158;SDS011;62511;47.970;11.774;2024-03-23T15:23:59;0.00;;;0.00;;
74158;SDS011;62511;47.970;11.774;2024-03-23T15:26:25;0.00;;;0.00;;
74158;SDS011;62511;47.970;11.774;2024-03-23T15:28:51;0.00;;;0.00;;
74158;SDS011;62511;47.970;11.774;2024-03-23T15:31:24;0.00;;;0.00;;
74158;SDS011;62511;47.970;11.774;2024-03-23T15:33:50;0.00;;;0.00;;
74158;SDS011;62511;47.970;11.774;2024-03-23T15:36:17;0.00;;;0.00;;
74158;SDS011;62511;47.970;11.774;2024-03-23T15:38:43;0.00;;;0.00;;
74158;SDS011;62511;47.970;11.774;2024-03-23T15:41:10;0.00;;;0.00;;
74158;SDS011;62511;47.970;11.774;2024-03-23T15:43:36;0.00;;;0.00;;